Morris, MN

1:02 PM CDT on March 27, 2017 (GMT -0500)
Morris Municipal

Weather History for KMOX - January, 2014

Change the Weather History Date:

Sunday, January 12, 2014

  Actual Average Record
Temperature  
Mean Temperature 32 °F -  
Max Temperature 39 °F 16 °F 39 °F (2014)
Min Temperature 24 °F 1 °F -16 °F (1999)
Degree Days  
Heating Degree Days 34    
Moisture  
Dew Point 28 °F    
Average Humidity 81    
Maximum Humidity 93    
Minimum Humidity 70    
Precipitation  
Precipitation 0.00 in - - ()
Sea Level Pressure  
Sea Level Pressure 29.38 in    
Wind  
Wind Speed 11 mph (SW)    
Max Wind Speed 18 mph    
Max Gust Speed 22 mph    
Visibility 10 miles    
Events      
Averages and records for this station are not official NWS values.
T = Trace of Precipitation, MM = Missing Value Source: NWS Daily Summary

Daily Weather History Graph

Daily Weather History Graph

Search for Another Location

Airport or City:

Trip Planner

Search our weather history database for the weather conditions in past years. The results will help you decide how hot, cold, wet, or windy it might be!

Date:

Astronomy

Jan. 12, 2014 Rise Set
Actual Time 8:01 AM CST 5:02 PM CST
Civil Twilight 7:28 AM CST 5:36 PM CST
Nautical Twilight 6:51 AM CST 6:13 PM CST
Astronomical Twilight 6:15 AM CST 6:48 PM CST
Moon 2:32 PM CST (1/12) 5:00 AM CST (1/12)
Length of Visible Light 10h 07m
Length of Day
9h 01m
Waxing Gibbous, 90% of the Moon is Illuminated
Jan 12
Waxing Gibbous
Jan 15
Full
Jan 23
Last Quarter
Jan 30
New
Feb 6
First Quarter

Hourly Weather History & Observations

Time (CST) Temp. Windchill Dew Point Humidity Pressure Visibility Wind Dir Wind Speed Gust Speed Precip Events Conditions
12:00 AM 24.8 °F 12.9 °F 21.2 °F 86% 29.46 in 10.0 mi SE 13.8 mph - N/A   Overcast
12:20 AM 24.8 °F 12.9 °F 21.2 °F 86% 29.44 in 10.0 mi SE 13.8 mph - N/A   Mostly Cloudy
12:40 AM 24.8 °F 13.4 °F 21.2 °F 86% 29.43 in 10.0 mi SE 12.7 mph - N/A   Scattered Clouds
1:00 AM 26.6 °F 13.8 °F 21.2 °F 80% 29.41 in 10.0 mi SE 17.3 mph - N/A   Clear
1:20 AM 26.6 °F 13.8 °F 23.0 °F 86% 29.38 in 10.0 mi SE 17.3 mph - N/A   Clear
1:40 AM 28.4 °F 15.8 °F 23.0 °F 80% 29.36 in 10.0 mi SE 18.4 mph - N/A   Clear
2:00 AM 28.4 °F 16.2 °F 23.0 °F 80% 29.35 in 10.0 mi SE 17.3 mph - N/A   Clear
2:20 AM 28.4 °F 16.6 °F 24.8 °F 86% 29.35 in 10.0 mi SE 16.1 mph 21.9 mph N/A   Clear
2:40 AM 28.4 °F 16.2 °F 23.0 °F 80% 29.33 in 10.0 mi SE 17.3 mph - N/A   Clear
3:00 AM 28.4 °F 16.6 °F 24.8 °F 86% 29.32 in 10.0 mi SE 16.1 mph - N/A   Clear
3:20 AM 28.4 °F 16.6 °F 24.8 °F 86% 29.31 in 10.0 mi SE 16.1 mph - N/A   Scattered Clouds
3:40 AM 30.2 °F 19.8 °F 24.8 °F 80% 29.31 in 10.0 mi SSE 13.8 mph - N/A   Scattered Clouds
4:00 AM 30.2 °F 20.8 °F 24.8 °F 80% 29.31 in 10.0 mi SE 11.5 mph - N/A   Scattered Clouds
4:20 AM 30.2 °F 21.3 °F 24.8 °F 80% 29.30 in 10.0 mi SE 10.4 mph - N/A   Scattered Clouds
4:40 AM 30.2 °F 21.9 °F 26.6 °F 86% 29.30 in 10.0 mi SE 9.2 mph - N/A   Scattered Clouds
5:00 AM 30.2 °F 21.9 °F 26.6 °F 86% 29.29 in 10.0 mi SE 9.2 mph - N/A   Clear
5:20 AM 30.2 °F 21.9 °F 26.6 °F 86% 29.29 in 10.0 mi SE 9.2 mph - N/A   Clear
5:40 AM 30.2 °F 21.3 °F 26.6 °F 86% 29.29 in 10.0 mi SSE 10.4 mph - N/A   Clear
6:00 AM 30.2 °F 21.9 °F 26.6 °F 86% 29.28 in 10.0 mi SE 9.2 mph - N/A   Scattered Clouds
6:20 AM 32.0 °F 24.2 °F 26.6 °F 80% 29.26 in 7.0 mi SE 9.2 mph - N/A   Mostly Cloudy
6:40 AM 32.0 °F 24.8 °F 26.6 °F 80% 29.24 in 10.0 mi SE 8.1 mph - N/A   Scattered Clouds
7:00 AM 30.2 °F 24.3 °F 26.6 °F 86% 29.26 in 10.0 mi SSE 5.8 mph - N/A   Mostly Cloudy
7:20 AM 30.2 °F - 26.6 °F 86% 29.30 in 10.0 mi Calm Calm - N/A   Overcast
7:40 AM 30.2 °F - 28.4 °F 93% 29.30 in 10.0 mi Calm Calm - N/A   Overcast
8:00 AM 30.2 °F - 28.4 °F 93% 29.31 in 10.0 mi Calm Calm - N/A   Mostly Cloudy
8:20 AM 30.2 °F - 28.4 °F 93% 29.30 in 10.0 mi Calm Calm - N/A   Scattered Clouds
8:40 AM 30.2 °F 24.3 °F 28.4 °F 93% 29.32 in 10.0 mi South 5.8 mph - N/A   Scattered Clouds
9:00 AM 30.2 °F 25.4 °F 28.4 °F 93% 29.33 in 10.0 mi South 4.6 mph - N/A   Scattered Clouds
9:20 AM 33.8 °F 27.7 °F 28.4 °F 81% 29.33 in 10.0 mi West 6.9 mph - N/A   Scattered Clouds
9:40 AM 35.6 °F 28.6 °F 30.2 °F 81% 29.33 in 10.0 mi West 9.2 mph - N/A   Clear
10:00 AM 35.6 °F 28.6 °F 30.2 °F 81% 29.34 in 10.0 mi West 9.2 mph - N/A   Scattered Clouds
10:20 AM 37.4 °F 30.8 °F 30.2 °F 75% 29.35 in 10.0 mi West 9.2 mph - N/A   Scattered Clouds
10:40 AM 37.4 °F 32.1 °F 30.2 °F 75% 29.34 in 10.0 mi West 6.9 mph - N/A   Clear
11:00 AM 39.2 °F 33.0 °F 30.2 °F 70% 29.34 in 10.0 mi West 9.2 mph - N/A   Clear
11:20 AM 37.4 °F 29.8 °F 32.0 °F 81% 29.34 in 10.0 mi West 11.5 mph - N/A   Clear
11:40 AM 39.2 °F 30.8 °F 30.2 °F 70% 29.34 in 10.0 mi West 15.0 mph - N/A   Clear
12:00 PM 39.2 °F 31.2 °F 30.2 °F 70% 29.33 in 10.0 mi West 13.8 mph - N/A   Clear
12:20 PM 39.2 °F 32.5 °F 30.2 °F 70% 29.33 in 10.0 mi West 10.4 mph - N/A   Clear
12:40 PM 39.2 °F 31.6 °F 30.2 °F 70% 29.33 in 10.0 mi WNW 12.7 mph - N/A   Clear
1:00 PM 39.2 °F 32.0 °F 30.2 °F 70% 29.33 in 10.0 mi West 11.5 mph - N/A   Clear
1:20 PM 39.2 °F 32.5 °F 30.2 °F 70% 29.33 in 10.0 mi West 10.4 mph - N/A   Clear
1:40 PM 39.2 °F 34.2 °F 30.2 °F 70% 29.33 in 10.0 mi West 6.9 mph - N/A   Clear
2:00 PM 39.2 °F 33.0 °F 30.2 °F 70% 29.35 in 10.0 mi West 9.2 mph - N/A   Clear
2:20 PM 37.4 °F 30.8 °F 30.2 °F 75% 29.35 in 10.0 mi West 9.2 mph - N/A   Clear
2:40 PM 37.4 °F 30.8 °F 30.2 °F 75% 29.36 in 10.0 mi West 9.2 mph - N/A   Clear
3:00 PM 37.4 °F 32.1 °F 30.2 °F 75% 29.37 in 10.0 mi West 6.9 mph - N/A   Clear
3:20 PM 37.4 °F 33.8 °F 30.2 °F 75% 29.37 in 10.0 mi West 4.6 mph - N/A   Clear
3:40 PM 37.4 °F 32.8 °F 30.2 °F 75% 29.39 in 10.0 mi West 5.8 mph - N/A   Clear
4:00 PM 35.6 °F 29.9 °F 30.2 °F 81% 29.39 in 10.0 mi WNW 6.9 mph - N/A   Clear
4:20 PM 35.6 °F 29.9 °F 30.2 °F 81% 29.42 in 10.0 mi West 6.9 mph - N/A   Clear
4:40 PM 35.6 °F 31.7 °F 30.2 °F 81% 29.42 in 10.0 mi SSW 4.6 mph - N/A   Clear
5:00 PM 35.6 °F 29.9 °F 30.2 °F 81% 29.44 in 10.0 mi SW 6.9 mph - N/A   Clear
5:20 PM 35.6 °F 28.0 °F 30.2 °F 81% 29.45 in 10.0 mi SW 10.4 mph - N/A   Clear
5:40 PM 35.6 °F 28.0 °F 30.2 °F 81% 29.45 in 10.0 mi WSW 10.4 mph - N/A   Clear
6:00 PM 33.8 °F 27.0 °F 28.4 °F 81% 29.46 in 10.0 mi WSW 8.1 mph - N/A   Clear
6:20 PM 33.8 °F 25.8 °F 28.4 °F 81% 29.46 in 10.0 mi WSW 10.4 mph - N/A   Clear
6:40 PM 33.8 °F 25.3 °F 28.4 °F 81% 29.47 in 10.0 mi WSW 11.5 mph - N/A   Clear
7:00 PM 33.8 °F 27.0 °F 28.4 °F 81% 29.48 in 10.0 mi WSW 8.1 mph - N/A   Clear
7:20 PM 32.0 °F 24.2 °F 28.4 °F 87% 29.47 in 10.0 mi WSW 9.2 mph - N/A   Clear
7:40 PM 33.8 °F 25.8 °F 28.4 °F 81% 29.46 in 10.0 mi WSW 10.4 mph - N/A   Clear
8:00 PM 33.8 °F 25.3 °F 28.4 °F 81% 29.45 in 10.0 mi WSW 11.5 mph - N/A   Clear
8:20 PM 33.8 °F 27.0 °F 28.4 °F 81% 29.46 in 10.0 mi WSW 8.1 mph - N/A   Clear
8:40 PM 33.8 °F 26.4 °F 28.4 °F 81% 29.49 in 10.0 mi West 9.2 mph - N/A   Clear
9:00 PM 32.0 °F 24.8 °F 26.6 °F 80% 29.49 in 10.0 mi West 8.1 mph - N/A   Clear
9:20 PM 30.2 °F 21.9 °F 26.6 °F 86% 29.50 in 10.0 mi West 9.2 mph - N/A   Clear
9:40 PM 30.2 °F 23.4 °F 26.6 °F 86% 29.50 in 10.0 mi West 6.9 mph - N/A   Clear
10:00 PM 30.2 °F 22.6 °F 26.6 °F 86% 29.50 in 10.0 mi West 8.1 mph - N/A   Clear
10:20 PM 30.2 °F 22.6 °F 26.6 °F 86% 29.51 in 10.0 mi West 8.1 mph - N/A   Clear
10:40 PM 32.0 °F 22.5 °F 26.6 °F 80% 29.52 in 10.0 mi West 12.7 mph - N/A   Clear
11:00 PM 32.0 °F 22.1 °F 26.6 °F 80% 29.53 in 10.0 mi WNW 13.8 mph - N/A   Clear
11:20 PM 32.0 °F 20.8 °F 26.6 °F 80% 29.53 in 10.0 mi WNW 17.3 mph - N/A   Clear
11:40 PM 30.2 °F 18.1 °F 26.6 °F 86% 29.53 in 10.0 mi NW 18.4 mph - N/A   Clear